| time (UTC) | temp C | wind direction | speed KPH | gust KPH | rain 1hr cm | rain 24hr cm | rain mn cm | humidity % | barometer mb |
| 20260508023055 | 8 | 212 | 1.6 | 8.0 | 0.00 | 2.59 | 2.59 | 99 | 1002.2 |
| 20260508021613 | 8 | 235 | 4.8 | 9.7 | 0.00 | 2.59 | 2.59 | 99 | 1001.9 |
| 20260508020053 | 8 | 264 | 3.2 | 9.7 | 0.00 | 2.59 | 2.59 | 99 | 1002.1 |
| 20260508014551 | 8 | 253 | 3.2 | 9.7 | 0.00 | 2.59 | 2.59 | 99 | 1002.1 |
| 20260508013106 | 8 | 249 | 1.6 | 9.7 | 0.00 | 2.59 | 2.59 | 99 | 1001.9 |
| 20260508011557 | 8 | 215 | 3.2 | 12.9 | 0.00 | 2.59 | 2.59 | 98 | 1001.9 |
| 20260508010055 | 9 | 283 | 3.2 | 16.1 | 0.00 | 2.59 | 2.59 | 98 | 1002.3 |
| 20260508004559 | 9 | 236 | 3.2 | 14.5 | 0.00 | 2.59 | 2.59 | 98 | 1002.2 |
| 20260508003105 | 9 | 229 | 3.2 | 16.1 | 0.00 | 2.59 | 2.59 | 99 | 1002.3 |
| 20260508001553 | 10 | 264 | 3.2 | 11.3 | 0.00 | 2.59 | 2.59 | 99 | 1002.3 |
| 20260508000054 | 9 | 245 | 3.2 | 9.7 | 0.00 | 2.59 | 2.59 | 99 | 1002.5 |
| 20260507234554 | 9 | 229 | 3.2 | 11.3 | 0.00 | 2.59 | 2.59 | 98 | 1002.6 |
| 20260507233053 | 10 | 183 | 4.8 | 12.9 | 0.00 | 2.59 | 2.59 | 98 | 1002.5 |
| 20260507231557 | 10 | 187 | 3.2 | 11.3 | 0.00 | 2.59 | 2.59 | 98 | 1002.4 |
| 20260507230050 | 10 | 207 | 3.2 | 11.3 | 0.00 | 2.59 | 2.59 | 98 | 1002.5 |
| 20260507224604 | 10 | 166 | 4.8 | 14.5 | 0.00 | 2.59 | 2.59 | 98 | 1002.6 |
| 20260507223056 | 10 | 196 | 3.2 | 17.7 | 0.03 | 2.59 | 2.59 | 98 | 1002.5 |
| 20260507221551 | 10 | 166 | 8.0 | 20.9 | 0.10 | 2.59 | 2.59 | 98 | 1003.0 |
| 20260507220055 | 10 | 187 | 8.0 | 20.9 | 0.23 | 2.59 | 2.59 | 98 | 1002.8 |
| 20260507214555 | 10 | 228 | 6.4 | 19.3 | 0.41 | 2.59 | 2.59 | 98 | 1002.8 |
| 20260507213055 | 10 | 156 | 6.4 | 19.3 | 0.58 | 2.57 | 2.57 | 98 | 1002.9 |
| 20260507211557 | 9 | 183 | 3.2 | 16.1 | 0.74 | 2.49 | 2.49 | 98 | 1002.7 |
| 20260507210119 | 9 | 184 | 6.4 | 17.7 | 0.81 | 2.36 | 2.36 | 98 | 1002.2 |
| 20260507204557 | 9 | 164 | 6.4 | 20.9 | 0.86 | 2.18 | 2.18 | 98 | 1002.6 |
| 20260507203107 | 9 | 157 | 6.4 | 14.5 | 0.89 | 1.98 | 1.98 | 98 | 1003.5 |
| 20260507201602 | 9 | 192 | 6.4 | 19.3 | 0.89 | 1.75 | 1.75 | 98 | 1003.8 |
| 20260507200104 | 9 | 187 | 8.0 | 25.7 | 0.84 | 1.52 | 1.52 | 97 | 1004.1 |
| 20260507194552 | 9 | 173 | 12.9 | 32.2 | 0.79 | 1.30 | 1.30 | 97 | 1004.7 |
| 20260507193111 | 10 | 205 | 11.3 | 24.1 | 0.74 | 1.07 | 1.07 | 97 | 1005.1 |
| 20260507191557 | 10 | 252 | 9.7 | 19.3 | 0.64 | 0.86 | 0.86 | 96 | 1005.0 |
| 20260507190052 | 10 | 277 | 8.0 | 20.9 | 0.48 | 0.69 | 0.69 | 96 | 1005.1 |
| 20260507184554 | 11 | 226 | 14.5 | 37.0 | 0.30 | 0.51 | 0.51 | 96 | 1004.9 |
| 20260507183059 | 11 | 247 | 12.9 | 27.4 | 0.13 | 0.33 | 0.33 | 95 | 1005.3 |
| 20260507181554 | 12 | 183 | 11.3 | 32.2 | 0.03 | 0.23 | 0.23 | 94 | 1005.1 |
| 20260507180058 | 12 | 160 | 14.5 | 30.6 | 0.00 | 0.20 | 0.20 | 93 | 1004.7 |
| 20260507174600 | 12 | 186 | 14.5 | 33.8 | 0.00 | 0.20 | 0.20 | 91 | 1004.9 |
| 20260507173129 | 12 | 147 | 16.1 | 41.8 | 0.00 | 0.20 | 0.20 | 92 | 1005.0 |
| 20260507171601 | 12 | 155 | 16.1 | 41.8 | 0.00 | 0.20 | 0.20 | 92 | 1005.5 |
| 20260507170100 | 12 | 169 | 17.7 | 33.8 | 0.00 | 0.20 | 0.20 | 93 | 1005.7 |
| 20260507164606 | 12 | 186 | 14.5 | 41.8 | 0.00 | 0.20 | 0.20 | 92 | 1006.1 |
| 20260507163102 | 12 | 247 | 20.9 | 45.1 | 0.00 | 0.20 | 0.20 | 93 | 1006.1 |
| 20260507161616 | 12 | 175 | 17.7 | 41.8 | 0.00 | 0.20 | 0.20 | 92 | 1006.8 |
| 20260507160117 | 11 | 176 | 17.7 | 40.2 | 0.00 | 0.20 | 0.20 | 94 | 1007.3 |
| 20260507154604 | 11 | 187 | 16.1 | 38.6 | 0.00 | 0.20 | 0.20 | 93 | 1008.1 |
| 20260507153054 | 12 | 175 | 20.9 | 43.5 | 0.00 | 0.20 | 0.20 | 93 | 1008.2 |
| 20260507151553 | 12 | 187 | 24.1 | 48.3 | 0.00 | 0.20 | 0.20 | 92 | 1008.6 |
| 20260507150106 | 12 | 147 | 19.3 | 40.2 | 0.00 | 0.20 | 0.20 | 93 | 1008.8 |
| 20260507144604 | 12 | 186 | 20.9 | 38.6 | 0.00 | 0.20 | 0.20 | 94 | 1009.0 |
| 20260507143106 | 11 | 142 | 17.7 | 43.5 | 0.00 | 0.20 | 0.20 | 94 | 1009.4 |
| 20260507141615 | 11 | 182 | 20.9 | 43.5 | 0.00 | 0.20 | 0.20 | 95 | 1009.8 |
| 20260507140100 | 11 | 194 | 19.3 | 46.7 | 0.00 | 0.20 | 0.20 | 94 | 1010.1 |
| 20260507134606 | 11 | 173 | 17.7 | 41.8 | 0.00 | 0.20 | 0.20 | 94 | 1010.1 |
| 20260507133059 | 12 | 158 | 20.9 | 40.2 | 0.00 | 0.20 | 0.20 | 93 | 1010.2 |
| 20260507131556 | 12 | 188 | 22.5 | 48.3 | 0.00 | 0.20 | 0.20 | 94 | 1010.1 |
| 20260507130054 | 12 | 160 | 25.7 | 46.7 | 0.03 | 0.20 | 0.20 | 95 | 1010.1 |
| 20260507124554 | 12 | 162 | 17.7 | 48.3 | 0.03 | 0.20 | 0.20 | 95 | 1009.6 |
| 20260507123053 | 12 | 162 | 22.5 | 51.5 | 0.05 | 0.20 | 0.20 | 96 | 1010.3 |
| 20260507121558 | 11 | 170 | 25.7 | 54.7 | 0.05 | 0.20 | 0.20 | 96 | 1010.4 |
| 20260507120055 | 11 | 158 | 20.9 | 40.2 | 0.03 | 0.18 | 0.18 | 97 | 1011.1 |
| 20260507114600 | 11 | 153 | 19.3 | 45.1 | 0.03 | 0.18 | 0.18 | 98 | 1011.2 |
| 20260507113055 | 11 | 183 | 19.3 | 43.5 | 0.03 | 0.15 | 0.15 | 98 | 1011.9 |
| 20260507111600 | 10 | 179 | 19.3 | 38.6 | 0.03 | 0.15 | 0.15 | 98 | 1012.2 |
| 20260507110050 | 10 | 152 | 17.7 | 35.4 | 0.05 | 0.15 | 0.15 | 98 | 1011.5 |
| 20260507104554 | 10 | 156 | 12.9 | 29.0 | 0.05 | 0.15 | 0.15 | 98 | 1012.2 |
| 20260507103048 | 10 | 182 | 12.9 | 29.0 | 0.03 | 0.13 | 0.13 | 98 | 1012.5 |
| 20260507101607 | 10 | 180 | 11.3 | 27.4 | 0.03 | 0.13 | 0.13 | 98 | 1012.8 |
| 20260507100051 | 11 | 154 | 11.3 | 20.9 | 0.03 | 0.10 | 0.10 | 99 | 1012.4 |
| 20260507094557 | 11 | 276 | 9.7 | 19.3 | 0.03 | 0.10 | 0.10 | 99 | 1012.6 |
| 20260507093054 | 10 | 254 | 6.4 | 19.3 | 0.03 | 0.10 | 0.10 | 99 | 1012.9 |
| 20260507091557 | 10 | 210 | 6.4 | 25.7 | 0.03 | 0.10 | 0.10 | 99 | 1013.1 |
| 20260507090049 | 10 | 166 | 14.5 | 29.0 | 0.03 | 0.08 | 0.08 | 99 | 1012.7 |
| 20260507084552 | 10 | 151 | 11.3 | 22.5 | 0.05 | 0.08 | 0.08 | 98 | 1012.7 |
| 20260507083053 | 10 | 204 | 9.7 | 29.0 | 0.08 | 0.08 | 0.08 | 99 | 1013.0 |
| 20260507081549 | 10 | 271 | 3.2 | 16.1 | 0.08 | 0.08 | 0.08 | 98 | 1013.0 |
| 20260507080057 | 10 | 163 | 4.8 | 14.5 | 0.05 | 0.05 | 0.05 | 98 | 1013.3 |
| 20260507074558 | 10 | 183 | 6.4 | 17.7 | 0.03 | 0.03 | 0.03 | 98 | 1013.3 |
| 20260507073053 | 10 | 173 | 9.7 | 24.1 | 0.00 | 0.00 | 0.00 | 98 | 1013.8 |
| 20260507071551 | 10 | 165 | 9.7 | 20.9 | 0.00 | 0.00 | 0.00 | 98 | 1014.0 |
| 20260507070058 | 10 | 141 | 11.3 | 19.3 | 0.00 | 0.00 | 0.00 | 98 | 1014.2 |
| 20260507064608 | 10 | 171 | 1.6 | 9.7 | 0.00 | 0.00 | 0.00 | 98 | 1014.2 |
| 20260507063057 | 10 | 0 | 3.2 | 9.7 | 0.00 | 0.00 | 0.00 | 98 | 1014.3 |
| 20260507061553 | 10 | 141 | 3.2 | 14.5 | 0.00 | 0.00 | 0.00 | 98 | 1014.5 |
| 20260507060054 | 10 | 277 | 3.2 | 12.9 | 0.00 | 0.00 | 0.00 | 98 | 1014.9 |
| 20260507054606 | 10 | 171 | 6.4 | 16.1 | 0.00 | 0.00 | 0.00 | 98 | 1015.0 |
| 20260507053055 | 10 | 216 | 4.8 | 12.9 | 0.00 | 0.00 | 0.00 | 98 | 1015.2 |
| 20260507051555 | 10 | 170 | 1.6 | 8.0 | 0.00 | 0.00 | 0.00 | 97 | 1015.5 |
| 20260507050052 | 10 | 0 | 3.2 | 12.9 | 0.00 | 0.00 | 0.00 | 97 | 1015.9 |
| 20260507044552 | 10 | 183 | 4.8 | 14.5 | 0.00 | 0.00 | 0.00 | 97 | 1016.2 |
| 20260507043059 | 10 | 252 | 4.8 | 16.1 | 0.00 | 0.00 | 0.00 | 97 | 1016.5 |
| 20260507041600 | 10 | 256 | 4.8 | 22.5 | 0.00 | 0.00 | 0.00 | 97 | 1016.8 |
| 20260507040057 | 10 | 229 | 6.4 | 17.7 | 0.00 | 0.00 | 0.00 | 97 | 1017.0 |
| 20260507034557 | 10 | 206 | 3.2 | 14.5 | 0.00 | 0.00 | 0.00 | 97 | 1017.0 |
| 20260507033052 | 10 | 206 | 3.2 | 14.5 | 0.00 | 0.00 | 0.00 | 96 | 1017.4 |
| 20260507031555 | 10 | 192 | 6.4 | 16.1 | 0.00 | 0.00 | 0.00 | 96 | 1017.6 |
| 20260507030058 | 10 | 189 | 3.2 | 17.7 | 0.00 | 0.00 | 0.00 | 96 | 1017.7 |
| 20260507024552 | 10 | 271 | 6.4 | 17.7 | 0.00 | 0.00 | 0.00 | 95 | 1017.9 |